Time;durP1;ratioP1;P1;durP2;ratioP2;P2;SDS_P1;SDS_P2;PMS_P1;PMS_P2;Temp;Humidity;BMP_temperature;BMP_pressure;BME280_temperature;BME280_humidity;BME280_pressure;Samples;Min_cycle;Max_cycle;Signal;HPM_P1;HPM_P2
2022/02/11 10:12:04;;;;;;;12.03;11.10;;;10.20;93.50;;;;;;5066977;27;20716;-80
2022/02/11 10:14:34;;;;;;;12.50;11.37;;;9.60;94.50;;;;;;5066764;28;20569;-80
2022/02/11 10:17:03;;;;;;;12.53;11.77;;;9.10;96.00;;;;;;5066763;28;20826;-80
2022/02/11 10:19:41;;;;;;;11.70;11.10;;;8.60;97.90;;;;;;5066600;28;20459;-80
2022/02/11 10:22:09;;;;;;;12.13;11.43;;;8.40;98.60;;;;;;5066689;28;20501;-79
2022/02/11 10:24:36;;;;;;;11.63;11.03;;;8.40;98.80;;;;;;5066522;28;21012;-80
2022/02/11 10:27:26;;;;;;;12.43;11.53;;;8.60;99.90;;;;;;5066818;28;20448;-79
2022/02/11 10:29:56;;;;;;;11.30;10.73;;;8.40;98.80;;;;;;5066269;28;20544;-80
2022/02/11 10:32:43;;;;;;;11.00;10.40;;;8.50;99.90;;;;;;5066259;28;20543;-81
2022/02/11 10:35:14;;;;;;;11.10;10.50;;;9.00;99.50;;;;;;5066296;28;20919;-82
2022/02/11 10:38:05;;;;;;;10.90;10.20;;;10.70;98.00;;;;;;5066291;28;20459;-81
2022/02/11 10:40:34;;;;;;;11.30;10.67;;;11.40;92.40;;;;;;5066455;28;20447;-79
2022/02/11 10:43:02;;;;;;;12.23;11.30;;;11.30;93.40;;;;;;5066130;28;20458;-79
2022/02/11 10:45:31;;;;;;;11.63;11.13;;;11.00;93.40;;;;;;5065965;28;20454;-79
2022/02/11 10:48:11;;;;;;;12.83;12.20;;;10.60;94.20;;;;;;5065825;28;20451;-80
2022/02/11 10:50:38;;;;;;;12.60;11.70;;;9.70;95.80;;;;;;5065813;28;20497;-79
2022/02/11 10:53:06;;;;;;;10.40;9.70;;;9.70;96.90;;;;;;5066044;28;20452;-79
2022/02/11 10:55:32;;;;;;;11.00;10.20;;;9.50;96.60;;;;;;5066177;28;20509;-79
2022/02/11 10:58:00;;;;;;;11.80;10.93;;;9.70;97.20;;;;;;5065913;28;20455;-79
2022/02/11 11:00:28;;;;;;;12.43;11.50;;;9.70;96.90;;;;;;5065652;28;20728;-79
2022/02/11 11:02:57;;;;;;;13.10;12.10;;;9.40;96.00;;;;;;5065403;28;20467;-79
2022/02/11 11:05:24;;;;;;;15.93;11.40;;;9.50;97.00;;;;;;5065676;28;20455;-79
2022/02/11 11:07:54;;;;;;;14.13;11.93;;;9.40;97.30;;;;;;5065641;28;20451;-81
2022/02/11 11:10:21;;;;;;;12.10;11.20;;;9.50;97.90;;;;;;5065667;28;20485;-79
2022/02/11 11:12:53;;;;;;;13.00;11.87;;;9.50;96.40;;;;;;5053792;28;20452;-79
2022/02/11 11:15:22;;;;;;;13.17;12.17;;;9.10;96.20;;;;;;5052519;28;20826;-78
2022/02/11 11:17:51;;;;;;;11.83;11.07;;;8.90;96.80;;;;;;5052538;28;20811;-79
2022/02/11 11:20:21;;;;;;;12.07;11.17;;;9.20;96.90;;;;;;5052598;28;20445;-79
2022/02/11 11:22:53;;;;;;;11.20;10.70;;;9.30;96.70;;;;;;5052453;28;20475;-80
2022/02/11 11:25:20;;;;;;;11.33;10.43;;;9.50;97.20;;;;;;5052586;28;20503;-80
2022/02/11 11:27:51;;;;;;;10.67;10.17;;;9.90;96.40;;;;;;5052305;28;20537;-80
2022/02/11 11:30:27;;;;;;;11.30;10.70;;;10.00;95.50;;;;;;5052309;28;20491;-80
2022/02/11 11:33:23;;;;;;;11.20;10.60;;;9.80;95.70;;;;;;5052141;28;20444;-80
2022/02/11 11:36:08;;;;;;;11.47;10.60;;;9.50;96.50;;;;;;5052237;28;20479;-80
2022/02/11 11:38:44;;;;;;;10.80;10.00;;;9.10;96.90;;;;;;5052135;28;20463;-80
2022/02/11 11:41:15;;;;;;;11.33;10.50;;;8.60;97.50;;;;;;5051937;28;20800;-80
2022/02/11 11:43:44;;;;;;;11.10;10.40;;;8.40;97.80;;;;;;5051902;28;20459;-80
2022/02/11 11:46:26;;;;;;;11.20;10.63;;;8.60;98.60;;;;;;5051857;28;20483;-80
2022/02/11 11:48:56;;;;;;;11.07;10.40;;;8.70;98.60;;;;;;5051797;28;20455;-80
2022/02/11 11:51:24;;;;;;;12.43;11.73;;;8.60;98.30;;;;;;5051576;28;20491;-81
2022/02/11 11:53:51;;;;;;;11.90;11.20;;;8.50;98.90;;;;;;5051748;28;20459;-80
2022/02/11 11:56:34;;;;;;;11.67;11.00;;;8.80;98.30;;;;;;5051965;28;20452;-81
2022/02/11 11:59:14;;;;;;;12.27;11.40;;;9.30;97.80;;;;;;5051684;28;20444;-81
2022/02/11 12:01:56;;;;;;;9.93;9.43;;;9.70;96.10;;;;;;5051320;28;20508;-81
2022/02/11 12:04:26;;;;;;;12.50;11.43;;;9.80;95.00;;;;;;5051421;28;20824;-81
2022/02/11 12:06:57;;;;;;;11.20;10.40;;;9.60;94.70;;;;;;5051276;28;21010;-81
2022/02/11 12:09:25;;;;;;;10.60;10.00;;;9.40;95.00;;;;;;5051220;28;20447;-81
2022/02/11 12:12:19;;;;;;;10.97;10.37;;;10.00;93.90;;;;;;5051307;28;20491;-80
2022/02/11 12:14:48;;;;;;;11.30;10.50;;;10.50;92.00;;;;;;5047522;28;20448;-82
2022/02/11 12:17:17;;;;;;;10.30;9.77;;;11.00;91.70;;;;;;5051228;28;20510;-81
2022/02/11 12:19:46;;;;;;;12.37;11.70;;;12.20;88.60;;;;;;5051283;28;20452;-81
2022/02/11 12:22:14;;;;;;;11.70;10.97;;;12.50;84.60;;;;;;5051217;28;20558;-81
2022/02/11 12:27:31;;;;;;;11.07;10.47;;;11.70;84.60;;;;;;5051114;28;20514;-81
2022/02/11 12:30:01;;;;;;;10.70;10.20;;;11.20;85.70;;;;;;5050832;28;20440;-81
2022/02/11 12:32:32;;;;;;;10.77;10.10;;;11.00;85.70;;;;;;5050791;28;20451;-81
2022/02/11 12:35:02;;;;;;;11.57;10.97;;;10.80;86.00;;;;;;5050969;28;20452;-81
2022/02/11 12:37:31;;;;;;;10.97;10.27;;;10.60;85.70;;;;;;5050874;28;20461;-80
2022/02/11 12:40:04;;;;;;;11.60;10.90;;;10.20;87.20;;;;;;5050845;28;20459;-81
2022/02/11 12:42:31;;;;;;;11.10;10.60;;;10.10;89.50;;;;;;5050970;28;20464;-81
2022/02/11 12:44:59;;;;;;;10.73;10.07;;;9.90;90.20;;;;;;5050852;28;20448;-81
2022/02/11 12:47:26;;;;;;;11.53;10.83;;;9.60;90.70;;;;;;5050464;28;20452;-80
2022/02/11 12:49:54;;;;;;;11.10;10.60;;;9.40;90.80;;;;;;5050657;28;20456;-81
2022/02/11 12:52:24;;;;;;;11.70;10.70;;;9.10;90.60;;;;;;5050764;28;20483;-80
2022/02/11 12:55:14;;;;;;;10.87;10.23;;;8.90;91.00;;;;;;5050603;28;20432;-79
2022/02/11 12:57:44;;;;;;;11.80;11.17;;;9.00;92.10;;;;;;5050412;28;20589;-79
2022/02/11 13:00:15;;;;;;;10.90;10.20;;;8.90;92.30;;;;;;5050306;28;21154;-79
2022/02/11 13:02:43;;;;;;;10.63;10.10;;;8.90;93.00;;;;;;5050242;28;20475;-80
2022/02/11 13:05:13;;;;;;;10.47;9.97;;;9.10;92.40;;;;;;5050177;28;20731;-80
2022/02/11 13:07:43;;;;;;;12.63;11.40;;;8.80;92.00;;;;;;5050235;28;20443;-80
2022/02/11 13:10:12;;;;;;;10.83;10.13;;;8.80;92.30;;;;;;5050189;28;20656;-80
2022/02/11 13:12:41;;;;;;;10.23;9.53;;;9.00;93.30;;;;;;5049921;28;20452;-79
2022/02/11 13:15:10;;;;;;;10.63;10.10;;;9.20;92.60;;;;;;5050148;28;20490;-79
2022/02/11 13:17:37;;;;;;;10.70;10.10;;;9.30;92.80;;;;;;5050033;28;20452;-80
2022/02/11 13:20:15;;;;;;;9.90;9.50;;;9.50;92.40;;;;;;5050214;28;20455;-80
2022/02/11 13:22:44;;;;;;;11.73;10.83;;;10.30;91.30;;;;;;5049923;28;20930;-80
2022/02/11 13:25:12;;;;;;;10.90;10.40;;;10.40;90.50;;;;;;5050082;28;20803;-79
2022/02/11 13:27:43;;;;;;;11.17;10.57;;;10.10;90.90;;;;;;5049783;28;20454;-80
2022/02/11 13:30:11;;;;;;;10.70;9.80;;;9.70;92.30;;;;;;5049852;28;20449;-80
2022/02/11 13:32:38;;;;;;;10.50;9.80;;;9.60;92.60;;;;;;5049671;28;20981;-79
2022/02/11 13:35:07;;;;;;;11.60;11.00;;;9.60;92.80;;;;;;5049710;28;20452;-79
2022/02/11 13:37:43;;;;;;;11.43;10.83;;;9.50;93.30;;;;;;5050108;28;20451;-79
2022/02/11 13:40:20;;;;;;;10.63;10.13;;;9.50;93.20;;;;;;5049793;28;20830;-79
2022/02/11 13:43:01;;;;;;;10.87;10.37;;;9.50;93.60;;;;;;5049987;28;20817;-79
2022/02/11 13:45:29;;;;;;;11.60;10.83;;;9.40;93.10;;;;;;5049936;28;20448;-79
2022/02/11 13:48:07;;;;;;;10.93;10.33;;;9.50;93.80;;;;;;5049564;28;20460;-78
2022/02/11 13:50:58;;;;;;;11.13;10.43;;;9.40;93.20;;;;;;5049903;28;20982;-79
2022/02/11 13:53:35;;;;;;;12.00;11.13;;;9.30;93.50;;;;;;5049778;28;20531;-79
2022/02/11 13:56:03;;;;;;;10.57;10.17;;;9.20;93.00;;;;;;5049803;28;20451;-79
2022/02/11 13:58:29;;;;;;;11.10;10.37;;;9.00;93.30;;;;;;5049557;28;20510;-79
2022/02/11 14:00:56;;;;;;;10.00;9.30;;;8.80;93.70;;;;;;5049702;28;20444;-79
2022/02/11 14:03:25;;;;;;;12.60;11.70;;;8.90;93.70;;;;;;5049021;28;20487;-79
2022/02/11 14:05:54;;;;;;;10.87;10.30;;;8.90;93.60;;;;;;5049530;28;20454;-79
2022/02/11 14:08:21;;;;;;;10.70;9.60;;;9.00;93.80;;;;;;5049844;28;20456;-79
2022/02/11 14:11:08;;;;;;;9.63;9.10;;;9.00;93.90;;;;;;5049651;28;20839;-79
2022/02/11 14:13:35;;;;;;;11.13;10.33;;;8.90;93.90;;;;;;5049896;28;20878;-79
2022/02/11 14:16:01;;;;;;;11.27;10.57;;;9.00;94.20;;;;;;5049565;28;20456;-79
2022/02/11 14:18:28;;;;;;;10.50;10.00;;;9.00;94.40;;;;;;5049138;28;20452;-79
2022/02/11 14:20:56;;;;;;;9.60;8.87;;;9.00;93.60;;;;;;5049425;28;20445;-79
2022/02/11 14:23:23;;;;;;;10.80;10.10;;;8.80;93.40;;;;;;5049346;28;20559;-79
2022/02/11 14:25:52;;;;;;;9.83;9.43;;;8.90;93.10;;;;;;5049628;28;20455;-79
2022/02/11 14:28:20;;;;;;;11.13;10.43;;;9.10;92.80;;;;;;5049883;28;20448;-79
2022/02/11 14:30:48;;;;;;;10.43;9.83;;;9.20;91.90;;;;;;5049258;28;20992;-79
2022/02/11 14:33:15;;;;;;;10.87;10.20;;;9.30;91.80;;;;;;5049253;28;20456;-79
2022/02/11 14:35:42;;;;;;;11.03;10.53;;;9.10;91.30;;;;;;5049230;28;20456;-79
2022/02/11 14:38:08;;;;;;;9.80;9.20;;;9.20;92.40;;;;;;5049347;28;20448;-79
2022/02/11 14:40:35;;;;;;;11.00;10.40;;;9.10;92.30;;;;;;5049363;28;20448;-79
2022/02/11 14:43:05;;;;;;;10.37;9.77;;;9.00;92.20;;;;;;5049362;28;20957;-79
2022/02/11 14:45:32;;;;;;;10.77;10.27;;;8.80;91.80;;;;;;5049373;28;20498;-78
2022/02/11 14:48:00;;;;;;;10.90;10.40;;;8.40;92.20;;;;;;5052035;28;20448;-79
2022/02/11 14:50:28;;;;;;;11.23;10.77;;;8.40;92.30;;;;;;5052905;28;20492;-79
2022/02/11 14:52:55;;;;;;;10.17;9.47;;;8.50;92.60;;;;;;5052774;28;20534;-79
2022/02/11 14:55:22;;;;;;;10.90;10.30;;;8.50;92.00;;;;;;5053244;28;20938;-79
2022/02/11 14:57:50;;;;;;;11.30;10.70;;;8.30;91.90;;;;;;5053130;28;20817;-79
2022/02/11 15:00:19;;;;;;;10.90;10.30;;;8.20;91.90;;;;;;5052927;28;20479;-79
2022/02/11 15:02:46;;;;;;;11.00;10.50;;;8.10;92.60;;;;;;5052724;28;20464;-79
2022/02/11 15:05:13;;;;;;;10.23;9.83;;;8.10;92.80;;;;;;5052716;28;20976;-79
2022/02/11 15:07:42;;;;;;;11.03;10.53;;;8.10;92.80;;;;;;5052528;28;20451;-78
2022/02/11 15:10:09;;;;;;;11.80;11.10;;;8.10;92.80;;;;;;5052315;28;20480;-79
2022/02/11 15:12:36;;;;;;;10.57;10.10;;;8.00;93.20;;;;;;5052510;28;21004;-78
2022/02/11 15:15:03;;;;;;;10.87;10.27;;;7.90;93.50;;;;;;5052764;28;20444;-77
2022/02/11 15:17:31;;;;;;;11.40;10.50;;;7.80;94.00;;;;;;5052309;28;20954;-78
2022/02/11 15:19:58;;;;;;;11.20;10.40;;;7.60;94.50;;;;;;5052390;28;20866;-78
2022/02/11 15:22:25;;;;;;;11.27;10.73;;;7.70;95.50;;;;;;5052392;28;20669;-78
2022/02/11 15:24:51;;;;;;;12.13;11.43;;;7.60;95.80;;;;;;5052307;28;20463;-78
2022/02/11 15:27:19;;;;;;;11.03;10.47;;;7.50;96.50;;;;;;5052738;28;20539;-78
2022/02/11 15:29:46;;;;;;;10.57;9.93;;;7.50;95.50;;;;;;5052385;28;20443;-77
2022/02/11 15:32:13;;;;;;;11.07;10.57;;;7.50;95.80;;;;;;5051980;28;20495;-77
2022/02/11 15:34:41;;;;;;;11.17;10.67;;;7.60;95.50;;;;;;5052055;28;20448;-78
2022/02/11 15:37:08;;;;;;;12.03;11.30;;;7.50;94.70;;;;;;5052058;28;20961;-78
2022/02/11 15:39:35;;;;;;;11.47;10.77;;;7.50;94.50;;;;;;5052206;28;20462;-77
2022/02/11 15:42:02;;;;;;;10.73;10.23;;;7.40;94.70;;;;;;5052183;28;20454;-77
2022/02/11 15:44:29;;;;;;;11.73;10.73;;;7.50;95.10;;;;;;5051937;28;20474;-77
2022/02/11 15:46:55;;;;;;;11.13;10.53;;;7.50;95.00;;;;;;5051688;28;20609;-78
2022/02/11 15:49:22;;;;;;;10.83;10.10;;;7.50;94.60;;;;;;5051759;28;20829;-78
2022/02/11 15:51:50;;;;;;;11.37;10.57;;;7.60;94.80;;;;;;5051790;28;20482;-78
2022/02/11 15:54:17;;;;;;;11.90;11.17;;;7.50;94.90;;;;;;5051926;28;20457;-78
2022/02/11 15:56:44;;;;;;;12.43;11.67;;;7.50;95.00;;;;;;5051377;28;20462;-77
2022/02/11 15:59:11;;;;;;;11.67;11.03;;;7.40;95.40;;;;;;5051264;28;20465;-78
2022/02/11 16:01:37;;;;;;;11.50;10.70;;;7.40;95.30;;;;;;5051308;28;20470;-77
2022/02/11 16:04:05;;;;;;;10.37;9.67;;;7.40;95.60;;;;;;5051792;28;20514;-77
2022/02/11 16:06:32;;;;;;;10.60;10.00;;;7.30;96.00;;;;;;5051417;28;20542;-77
2022/02/11 16:09:00;;;;;;;11.53;10.83;;;7.30;96.40;;;;;;5051219;28;20521;-77
2022/02/11 16:11:27;;;;;;;10.20;9.50;;;7.30;96.30;;;;;;5050993;28;20546;-77
2022/02/11 16:13:54;;;;;;;11.23;10.53;;;7.20;96.30;;;;;;5051077;28;20474;-77
2022/02/11 16:16:20;;;;;;;11.57;10.77;;;7.20;96.40;;;;;;5051074;28;20466;-77
2022/02/11 16:18:47;;;;;;;9.87;9.37;;;7.20;97.00;;;;;;5051228;28;20446;-77
2022/02/11 16:21:14;;;;;;;10.80;10.00;;;7.10;97.10;;;;;;5051154;28;20455;-77
2022/02/11 16:23:41;;;;;;;12.13;11.23;;;7.10;97.50;;;;;;5050826;28;20452;-77
2022/02/11 16:26:10;;;;;;;11.30;10.60;;;7.10;97.80;;;;;;5050869;28;20454;-78
2022/02/11 16:28:38;;;;;;;11.60;10.60;;;7.00;98.40;;;;;;5051053;28;20453;-88
2022/02/11 16:31:18;;;;;;;10.93;10.17;;;6.90;99.90;;;;;;5062091;28;20450;-89
2022/02/11 16:33:48;;;;;;;12.40;11.60;;;6.80;99.90;;;;;;5838242;23;20460;-89
2022/02/11 16:36:15;;;;;;;12.87;11.97;;;6.60;99.90;;;;;;4973505;28;20579;-88
2022/02/11 16:38:45;;;;;;;13.83;12.33;;;6.60;99.90;;;;;;4973835;28;20472;-87
2022/02/11 16:41:15;;;;;;;13.17;12.33;;;6.50;99.90;;;;;;4973658;28;20459;-87
2022/02/11 16:43:43;;;;;;;12.23;11.63;;;6.50;99.90;;;;;;4972981;28;20454;-83
2022/02/11 16:46:10;;;;;;;12.63;11.83;;;6.40;99.90;;;;;;4972170;28;20460;-83
2022/02/11 16:48:37;;;;;;;14.93;14.03;;;6.30;99.90;;;;;;4972075;28;20459;-79
2022/02/11 16:51:05;;;;;;;14.80;13.90;;;5.80;99.90;;;;;;4972208;28;20452;-79
2022/02/11 16:53:31;;;;;;;17.40;16.27;;;5.50;99.90;;;;;;4972035;28;20499;-77
2022/02/11 16:55:58;;;;;;;30.60;28.50;;;5.20;99.90;;;;;;4971723;28;20437;-77
2022/02/11 16:58:26;;;;;;;31.17;29.57;;;4.90;99.90;;;;;;4971843;28;20458;-78
2022/02/11 17:00:53;;;;;;;31.87;29.57;;;4.70;99.90;;;;;;4971831;28;20513;-79
2022/02/11 17:03:20;;;;;;;31.80;30.00;;;4.60;99.90;;;;;;4971708;28;20481;-78
2022/02/11 17:05:47;;;;;;;30.27;28.67;;;4.50;99.90;;;;;;4972126;28;20501;-77
2022/02/11 17:08:14;;;;;;;30.70;29.13;;;4.40;99.90;;;;;;4971700;28;20459;-79
2022/02/11 17:10:41;;;;;;;30.67;28.83;;;4.40;99.90;;;;;;4971136;28;20550;-78
2022/02/11 17:13:08;;;;;;;29.30;27.80;;;4.30;99.90;;;;;;4971527;28;20831;-78
2022/02/11 17:15:36;;;;;;;32.07;30.30;;;4.40;99.90;;;;;;4971789;28;20448;-78
2022/02/11 17:18:03;;;;;;;33.67;30.90;;;4.40;99.90;;;;;;4971819;28;20558;-79
2022/02/11 17:20:30;;;;;;;30.93;28.90;;;4.30;99.90;;;;;;4971467;28;20471;-79
2022/02/11 17:22:56;;;;;;;29.77;27.93;;;4.30;99.90;;;;;;4971404;28;20442;-79
2022/02/11 17:25:23;;;;;;;31.70;29.10;;;4.20;99.90;;;;;;4971420;28;20463;-80
2022/02/11 17:27:50;;;;;;;31.50;29.70;;;4.20;99.90;;;;;;4971485;28;20477;-78
2022/02/11 17:30:16;;;;;;;30.67;28.87;;;4.20;99.90;;;;;;4971471;28;20462;-78
2022/02/11 17:32:47;;;;;;;31.13;29.47;;;4.10;99.90;;;;;;4971045;28;20499;-78
2022/02/11 17:35:13;;;;;;;31.03;29.30;;;4.20;99.90;;;;;;4970995;28;20491;-77
2022/02/11 17:37:40;;;;;;;31.10;29.40;;;4.20;99.90;;;;;;4971268;28;20515;-78
2022/02/11 17:40:08;;;;;;;30.20;28.50;;;4.30;99.90;;;;;;4971242;28;20492;-78
2022/02/11 17:42:35;;;;;;;29.87;28.37;;;4.30;99.90;;;;;;4971594;28;20782;-78
2022/02/11 17:45:02;;;;;;;29.20;27.60;;;4.30;99.90;;;;;;4971435;28;20460;-78
2022/02/11 17:47:29;;;;;;;28.23;26.73;;;4.30;99.90;;;;;;4970910;28;20958;-78
2022/02/11 17:49:57;;;;;;;28.03;26.23;;;4.30;99.90;;;;;;4971039;28;20795;-77
2022/02/11 17:52:24;;;;;;;28.67;27.27;;;4.20;99.90;;;;;;4971007;28;20490;-77
2022/02/11 17:54:50;;;;;;;31.00;29.00;;;4.10;99.90;;;;;;4971145;28;20463;-76
2022/02/11 17:57:17;;;;;;;29.30;27.40;;;3.90;99.90;;;;;;4971234;28;20821;-78
